sensor_id;sensor_type;location;lat;lon;timestamp;temperature;humidity
8666;DHT22;4370;48.916;8.380;2023-06-04T00:02:26;13.00;88.80
8666;DHT22;4370;48.916;8.380;2023-06-04T00:04:52;12.80;91.60
8666;DHT22;4370;48.916;8.380;2023-06-04T00:07:22;13.00;90.30
8666;DHT22;4370;48.916;8.380;2023-06-04T00:12:14;12.90;91.00
8666;DHT22;4370;48.916;8.380;2023-06-04T00:14:45;13.20;95.00
8666;DHT22;4370;48.916;8.380;2023-06-04T00:19:40;12.90;91.90
8666;DHT22;4370;48.916;8.380;2023-06-04T00:22:07;12.80;92.10
8666;DHT22;4370;48.916;8.380;2023-06-04T00:24:34;12.40;95.70
8666;DHT22;4370;48.916;8.380;2023-06-04T00:31:52;12.70;99.00
8666;DHT22;4370;48.916;8.380;2023-06-04T00:34:20;12.50;99.30
8666;DHT22;4370;48.916;8.380;2023-06-04T00:39:13;12.30;93.40
8666;DHT22;4370;48.916;8.380;2023-06-04T00:41:39;12.40;97.10
8666;DHT22;4370;48.916;8.380;2023-06-04T00:44:06;12.40;93.80
8666;DHT22;4370;48.916;8.380;2023-06-04T00:46:32;12.20;97.50
8666;DHT22;4370;48.916;8.380;2023-06-04T00:49:05;12.30;94.30
8666;DHT22;4370;48.916;8.380;2023-06-04T00:51:38;12.60;95.80
8666;DHT22;4370;48.916;8.380;2023-06-04T00:54:04;12.10;95.70
8666;DHT22;4370;48.916;8.380;2023-06-04T00:56:37;12.10;94.80
8666;DHT22;4370;48.916;8.380;2023-06-04T00:59:08;12.00;94.80
8666;DHT22;4370;48.916;8.380;2023-06-04T01:04:11;11.90;95.00
8666;DHT22;4370;48.916;8.380;2023-06-04T01:06:45;11.90;95.30
8666;DHT22;4370;48.916;8.380;2023-06-04T01:14:08;12.00;96.70
8666;DHT22;4370;48.916;8.380;2023-06-04T01:19:53;12.00;95.30
8666;DHT22;4370;48.916;8.380;2023-06-04T01:22:48;12.00;95.20
8666;DHT22;4370;48.916;8.380;2023-06-04T01:25:40;11.90;97.70
8666;DHT22;4370;48.916;8.380;2023-06-04T01:28:10;12.10;95.40
8666;DHT22;4370;48.916;8.380;2023-06-04T01:30:41;12.10;95.40
8666;DHT22;4370;48.916;8.380;2023-06-04T01:33:13;12.10;95.50
8666;DHT22;4370;48.916;8.380;2023-06-04T01:35:41;12.10;98.20
8666;DHT22;4370;48.916;8.380;2023-06-04T01:38:07;12.20;95.60
8666;DHT22;4370;48.916;8.380;2023-06-04T01:45:27;12.10;96.80
8666;DHT22;4370;48.916;8.380;2023-06-04T01:50:20;12.00;95.00
8666;DHT22;4370;48.916;8.380;2023-06-04T01:52:48;12.30;97.40
8666;DHT22;4370;48.916;8.380;2023-06-04T01:55:15;12.00;97.50
8666;DHT22;4370;48.916;8.380;2023-06-04T01:57:42;12.30;93.90
8666;DHT22;4370;48.916;8.380;2023-06-04T02:00:10;12.30;93.80
8666;DHT22;4370;48.916;8.380;2023-06-04T02:02:38;12.30;93.70
8666;DHT22;4370;48.916;8.380;2023-06-04T02:05:05;12.20;93.70
8666;DHT22;4370;48.916;8.380;2023-06-04T02:07:43;11.80;96.30
8666;DHT22;4370;48.916;8.380;2023-06-04T02:10:12;12.10;93.70
8666;DHT22;4370;48.916;8.380;2023-06-04T02:12:39;13.00;94.10
8666;DHT22;4370;48.916;8.380;2023-06-04T02:15:06;12.30;93.70
8666;DHT22;4370;48.916;8.380;2023-06-04T02:20:03;12.00;93.50
8666;DHT22;4370;48.916;8.380;2023-06-04T02:22:29;12.30;95.60
8666;DHT22;4370;48.916;8.380;2023-06-04T02:46:50;12.40;95.40
8666;DHT22;4370;48.916;8.380;2023-06-04T02:51:42;12.20;91.90
8666;DHT22;4370;48.916;8.380;2023-06-04T02:56:35;12.20;91.90
8666;DHT22;4370;48.916;8.380;2023-06-04T02:59:01;12.40;92.10
8666;DHT22;4370;48.916;8.380;2023-06-04T03:01:27;12.20;91.30
8666;DHT22;4370;48.916;8.380;2023-06-04T03:03:54;12.30;91.20
8666;DHT22;4370;48.916;8.380;2023-06-04T03:06:21;12.20;97.10
8666;DHT22;4370;48.916;8.380;2023-06-04T03:08:50;12.50;97.40
8666;DHT22;4370;48.916;8.380;2023-06-04T03:11:17;11.90;91.40
8666;DHT22;4370;48.916;8.380;2023-06-04T03:13:47;12.10;91.60
8666;DHT22;4370;48.916;8.380;2023-06-04T03:16:14;12.00;91.70
8666;DHT22;4370;48.916;8.380;2023-06-04T03:18:43;12.10;91.80
8666;DHT22;4370;48.916;8.380;2023-06-04T03:21:10;12.20;95.50
8666;DHT22;4370;48.916;8.380;2023-06-04T03:23:39;11.90;98.00
8666;DHT22;4370;48.916;8.380;2023-06-04T03:28:32;12.00;92.30
8666;DHT22;4370;48.916;8.380;2023-06-04T03:33:24;11.60;93.30
8666;DHT22;4370;48.916;8.380;2023-06-04T03:35:53;11.90;92.60
8666;DHT22;4370;48.916;8.380;2023-06-04T03:38:19;11.90;92.70
8666;DHT22;4370;48.916;8.380;2023-06-04T03:40:45;11.60;94.50
8666;DHT22;4370;48.916;8.380;2023-06-04T03:43:11;12.10;98.40
8666;DHT22;4370;48.916;8.380;2023-06-04T03:48:03;11.80;93.00
8666;DHT22;4370;48.916;8.380;2023-06-04T03:50:31;11.70;96.00
8666;DHT22;4370;48.916;8.380;2023-06-04T04:00:19;15.00;92.40
8666;DHT22;4370;48.916;8.380;2023-06-04T04:10:06;12.90;95.20
8666;DHT22;4370;48.916;8.380;2023-06-04T04:12:32;12.70;94.60
8666;DHT22;4370;48.916;8.380;2023-06-04T04:17:24;12.80;94.10
8666;DHT22;4370;48.916;8.380;2023-06-04T04:24:43;13.00;85.80
8666;DHT22;4370;48.916;8.380;2023-06-04T04:29:37;13.10;90.30
8666;DHT22;4370;48.916;8.380;2023-06-04T04:32:07;13.40;83.80
8666;DHT22;4370;48.916;8.380;2023-06-04T04:34:37;13.40;87.90
8666;DHT22;4370;48.916;8.380;2023-06-04T04:39:30;13.70;82.40
8666;DHT22;4370;48.916;8.380;2023-06-04T04:44:23;13.90;91.20
8666;DHT22;4370;48.916;8.380;2023-06-04T04:46:51;14.10;77.90
8666;DHT22;4370;48.916;8.380;2023-06-04T04:49:17;13.80;89.20
8666;DHT22;4370;48.916;8.380;2023-06-04T04:51:46;14.00;89.50
8666;DHT22;4370;48.916;8.380;2023-06-04T04:59:07;14.20;76.80
8666;DHT22;4370;48.916;8.380;2023-06-04T05:03:59;14.70;84.50
8666;DHT22;4370;48.916;8.380;2023-06-04T05:11:17;14.70;74.60
8666;DHT22;4370;48.916;8.380;2023-06-04T05:13:44;14.70;86.20
8666;DHT22;4370;48.916;8.380;2023-06-04T05:16:12;14.90;73.50
8666;DHT22;4370;48.916;8.380;2023-06-04T05:33:26;16.30;64.10
8666;DHT22;4370;48.916;8.380;2023-06-04T05:35:53;16.50;63.20
8666;DHT22;4370;48.916;8.380;2023-06-04T05:38:20;16.90;71.30
8666;DHT22;4370;48.916;8.380;2023-06-04T05:43:20;17.40;60.10
8666;DHT22;4370;48.916;8.380;2023-06-04T06:00:22;20.10;63.10
8666;DHT22;4370;48.916;8.380;2023-06-04T06:07:41;24.80;41.10
8666;DHT22;4370;48.916;8.380;2023-06-04T06:10:07;26.50;42.60
8666;DHT22;4370;48.916;8.380;2023-06-04T06:12:35;26.40;39.10
8666;DHT22;4370;48.916;8.380;2023-06-04T06:15:02;27.70;36.20
8666;DHT22;4370;48.916;8.380;2023-06-04T06:17:27;29.10;44.10
8666;DHT22;4370;48.916;8.380;2023-06-04T06:19:54;29.30;32.10
8666;DHT22;4370;48.916;8.380;2023-06-04T06:22:24;30.20;42.00
8666;DHT22;4370;48.916;8.380;2023-06-04T06:24:49;30.00;30.40
8666;DHT22;4370;48.916;8.380;2023-06-04T06:27:15;30.60;29.90
8666;DHT22;4370;48.916;8.380;2023-06-04T06:29:44;31.20;29.10
8666;DHT22;4370;48.916;8.380;2023-06-04T06:32:11;31.60;27.90
8666;DHT22;4370;48.916;8.380;2023-06-04T06:34:36;31.60;28.00
8666;DHT22;4370;48.916;8.380;2023-06-04T06:37:03;31.70;28.30
8666;DHT22;4370;48.916;8.380;2023-06-04T06:39:29;31.90;28.00
8666;DHT22;4370;48.916;8.380;2023-06-04T06:41:54;32.00;27.40
8666;DHT22;4370;48.916;8.380;2023-06-04T06:44:20;32.40;27.30
8666;DHT22;4370;48.916;8.380;2023-06-04T06:46:46;32.70;27.10
8666;DHT22;4370;48.916;8.380;2023-06-04T06:49:12;32.90;26.90
8666;DHT22;4370;48.916;8.380;2023-06-04T06:51:38;33.30;26.40
8666;DHT22;4370;48.916;8.380;2023-06-04T06:54:05;33.40;26.20
8666;DHT22;4370;48.916;8.380;2023-06-04T06:56:30;33.40;26.00
8666;DHT22;4370;48.916;8.380;2023-06-04T06:58:56;33.40;26.00
8666;DHT22;4370;48.916;8.380;2023-06-04T07:01:21;33.10;26.00
8666;DHT22;4370;48.916;8.380;2023-06-04T07:03:47;33.10;26.20
8666;DHT22;4370;48.916;8.380;2023-06-04T07:06:16;33.10;26.10
8666;DHT22;4370;48.916;8.380;2023-06-04T07:08:41;33.60;36.70
8666;DHT22;4370;48.916;8.380;2023-06-04T07:11:07;33.40;26.20
8666;DHT22;4370;48.916;8.380;2023-06-04T07:13:38;33.50;25.50
8666;DHT22;4370;48.916;8.380;2023-06-04T07:16:03;33.50;25.60
8666;DHT22;4370;48.916;8.380;2023-06-04T07:18:29;33.40;25.90
8666;DHT22;4370;48.916;8.380;2023-06-04T07:20:55;33.00;38.40
8666;DHT22;4370;48.916;8.380;2023-06-04T07:23:20;32.80;25.60
8666;DHT22;4370;48.916;8.380;2023-06-04T07:25:46;32.10;26.30
8666;DHT22;4370;48.916;8.380;2023-06-04T07:28:13;32.10;39.20
8666;DHT22;4370;48.916;8.380;2023-06-04T07:30:38;32.40;38.00
8666;DHT22;4370;48.916;8.380;2023-06-04T07:33:04;32.70;26.00
8666;DHT22;4370;48.916;8.380;2023-06-04T07:35:30;33.20;26.30
8666;DHT22;4370;48.916;8.380;2023-06-04T07:37:55;33.50;25.30
8666;DHT22;4370;48.916;8.380;2023-06-04T07:40:21;33.70;25.40
8666;DHT22;4370;48.916;8.380;2023-06-04T07:42:47;33.80;25.30
8666;DHT22;4370;48.916;8.380;2023-06-04T07:45:13;33.80;36.80
8666;DHT22;4370;48.916;8.380;2023-06-04T07:47:42;34.70;25.50
8666;DHT22;4370;48.916;8.380;2023-06-04T07:50:09;33.80;25.10
8666;DHT22;4370;48.916;8.380;2023-06-04T07:52:38;33.60;35.00
8666;DHT22;4370;48.916;8.380;2023-06-04T07:55:05;33.80;24.80
8666;DHT22;4370;48.916;8.380;2023-06-04T07:57:31;33.70;24.90
8666;DHT22;4370;48.916;8.380;2023-06-04T07:59:57;33.60;25.30
8666;DHT22;4370;48.916;8.380;2023-06-04T08:02:23;33.50;25.30
8666;DHT22;4370;48.916;8.380;2023-06-04T08:04:50;33.50;25.10
8666;DHT22;4370;48.916;8.380;2023-06-04T08:07:16;33.40;24.90
8666;DHT22;4370;48.916;8.380;2023-06-04T08:09:42;33.20;25.20
8666;DHT22;4370;48.916;8.380;2023-06-04T08:12:09;33.00;25.50
8666;DHT22;4370;48.916;8.380;2023-06-04T08:14:35;32.60;38.70
8666;DHT22;4370;48.916;8.380;2023-06-04T08:17:01;33.90;26.50
8666;DHT22;4370;48.916;8.380;2023-06-04T08:19:27;32.40;26.10
8666;DHT22;4370;48.916;8.380;2023-06-04T08:21:57;32.00;26.00
8666;DHT22;4370;48.916;8.380;2023-06-04T08:24:26;30.10;40.10
8666;DHT22;4370;48.916;8.380;2023-06-04T08:26:52;28.60;41.40
8666;DHT22;4370;48.916;8.380;2023-06-04T08:29:18;27.30;41.20
8666;DHT22;4370;48.916;8.380;2023-06-04T08:31:44;26.60;45.10
8666;DHT22;4370;48.916;8.380;2023-06-04T08:34:10;26.90;30.90
8666;DHT22;4370;48.916;8.380;2023-06-04T08:36:35;26.30;31.20
8666;DHT22;4370;48.916;8.380;2023-06-04T08:39:01;25.30;32.50
8666;DHT22;4370;48.916;8.380;2023-06-04T08:41:48;25.10;33.90
8666;DHT22;4370;48.916;8.380;2023-06-04T08:44:16;25.60;35.40
8666;DHT22;4370;48.916;8.380;2023-06-04T08:46:43;24.40;35.40
8666;DHT22;4370;48.916;8.380;2023-06-04T08:49:12;24.00;35.80
8666;DHT22;4370;48.916;8.380;2023-06-04T08:51:40;24.20;36.90
8666;DHT22;4370;48.916;8.380;2023-06-04T08:54:08;24.10;36.70
8666;DHT22;4370;48.916;8.380;2023-06-04T08:56:35;24.00;37.60
8666;DHT22;4370;48.916;8.380;2023-06-04T08:59:05;23.90;37.70
8666;DHT22;4370;48.916;8.380;2023-06-04T09:01:36;24.30;38.60
8666;DHT22;4370;48.916;8.380;2023-06-04T09:04:11;23.80;38.30
8666;DHT22;4370;48.916;8.380;2023-06-04T09:06:38;23.80;38.30
8666;DHT22;4370;48.916;8.380;2023-06-04T09:09:09;23.80;38.20
8666;DHT22;4370;48.916;8.380;2023-06-04T09:11:49;23.60;38.10
8666;DHT22;4370;48.916;8.380;2023-06-04T09:14:18;23.70;38.00
8666;DHT22;4370;48.916;8.380;2023-06-04T09:16:49;23.60;38.90
8666;DHT22;4370;48.916;8.380;2023-06-04T09:19:16;23.80;39.50
8666;DHT22;4370;48.916;8.380;2023-06-04T09:21:48;23.80;39.40
8666;DHT22;4370;48.916;8.380;2023-06-04T09:24:14;23.80;38.90
8666;DHT22;4370;48.916;8.380;2023-06-04T09:26:39;23.90;39.60
8666;DHT22;4370;48.916;8.380;2023-06-04T09:29:05;24.40;40.10
8666;DHT22;4370;48.916;8.380;2023-06-04T09:31:32;23.60;39.10
8666;DHT22;4370;48.916;8.380;2023-06-04T09:34:03;24.60;39.70
8666;DHT22;4370;48.916;8.380;2023-06-04T09:36:33;24.00;39.20
8666;DHT22;4370;48.916;8.380;2023-06-04T09:39:03;24.20;39.90
8666;DHT22;4370;48.916;8.380;2023-06-04T09:41:29;24.30;39.60
8666;DHT22;4370;48.916;8.380;2023-06-04T09:44:04;24.20;56.40
8666;DHT22;4370;48.916;8.380;2023-06-04T09:46:31;24.30;38.70
8666;DHT22;4370;48.916;8.380;2023-06-04T09:49:04;24.80;39.00
8666;DHT22;4370;48.916;8.380;2023-06-04T09:51:32;24.30;55.00
8666;DHT22;4370;48.916;8.380;2023-06-04T09:53:59;24.30;38.20
8666;DHT22;4370;48.916;8.380;2023-06-04T09:56:27;24.10;55.50
8666;DHT22;4370;48.916;8.380;2023-06-04T09:58:59;24.40;57.10
8666;DHT22;4370;48.916;8.380;2023-06-04T10:01:30;24.10;39.10
8666;DHT22;4370;48.916;8.380;2023-06-04T10:03:58;24.20;39.00
8666;DHT22;4370;48.916;8.380;2023-06-04T10:06:33;24.30;39.10
8666;DHT22;4370;48.916;8.380;2023-06-04T10:08:59;24.10;38.00
8666;DHT22;4370;48.916;8.380;2023-06-04T10:11:31;23.50;37.00
8666;DHT22;4370;48.916;8.380;2023-06-04T10:14:03;24.50;37.60
8666;DHT22;4370;48.916;8.380;2023-06-04T10:16:37;24.50;37.80
8666;DHT22;4370;48.916;8.380;2023-06-04T10:19:04;24.00;37.10
8666;DHT22;4370;48.916;8.380;2023-06-04T10:21:32;25.10;38.10
8666;DHT22;4370;48.916;8.380;2023-06-04T10:24:00;24.40;37.50
8666;DHT22;4370;48.916;8.380;2023-06-04T10:26:27;24.50;37.50
8666;DHT22;4370;48.916;8.380;2023-06-04T10:28:56;24.50;37.20
8666;DHT22;4370;48.916;8.380;2023-06-04T10:31:22;24.60;37.30
8666;DHT22;4370;48.916;8.380;2023-06-04T10:33:48;23.90;37.80
8666;DHT22;4370;48.916;8.380;2023-06-04T10:36:20;24.40;38.60
8666;DHT22;4370;48.916;8.380;2023-06-04T10:38:56;24.40;55.40
8666;DHT22;4370;48.916;8.380;2023-06-04T10:41:23;24.20;37.90
8666;DHT22;4370;48.916;8.380;2023-06-04T10:43:51;23.90;36.30
8666;DHT22;4370;48.916;8.380;2023-06-04T10:46:19;24.50;37.00
8666;DHT22;4370;48.916;8.380;2023-06-04T10:48:46;24.50;55.10
8666;DHT22;4370;48.916;8.380;2023-06-04T10:51:12;23.10;36.30
8666;DHT22;4370;48.916;8.380;2023-06-04T10:53:37;24.90;37.10
8666;DHT22;4370;48.916;8.380;2023-06-04T10:56:04;24.50;37.00
8666;DHT22;4370;48.916;8.380;2023-06-04T10:58:34;24.50;37.70
8666;DHT22;4370;48.916;8.380;2023-06-04T11:01:00;24.30;37.10
8666;DHT22;4370;48.916;8.380;2023-06-04T11:03:35;24.50;37.70
8666;DHT22;4370;48.916;8.380;2023-06-04T11:06:15;24.50;37.70
8666;DHT22;4370;48.916;8.380;2023-06-04T11:08:42;24.60;53.60
8666;DHT22;4370;48.916;8.380;2023-06-04T11:11:13;24.60;36.50
8666;DHT22;4370;48.916;8.380;2023-06-04T11:13:40;25.10;36.70
8666;DHT22;4370;48.916;8.380;2023-06-04T11:18:41;24.50;54.10
8666;DHT22;4370;48.916;8.380;2023-06-04T11:21:06;24.60;37.00
8666;DHT22;4370;48.916;8.380;2023-06-04T11:23:33;24.70;36.90
8666;DHT22;4370;48.916;8.380;2023-06-04T11:25:59;24.20;37.00
8666;DHT22;4370;48.916;8.380;2023-06-04T11:28:26;25.70;36.90
8666;DHT22;4370;48.916;8.380;2023-06-04T11:30:59;24.70;36.50
8666;DHT22;4370;48.916;8.380;2023-06-04T11:33:28;25.20;36.80
8666;DHT22;4370;48.916;8.380;2023-06-04T11:35:54;24.70;35.90
8666;DHT22;4370;48.916;8.380;2023-06-04T11:38:20;24.90;36.80
8666;DHT22;4370;48.916;8.380;2023-06-04T11:41:03;24.70;37.50
8666;DHT22;4370;48.916;8.380;2023-06-04T11:43:32;24.60;36.80
8666;DHT22;4370;48.916;8.380;2023-06-04T11:45:58;24.70;35.90
8666;DHT22;4370;48.916;8.380;2023-06-04T11:48:24;24.70;36.10
8666;DHT22;4370;48.916;8.380;2023-06-04T11:50:49;24.80;53.10
8666;DHT22;4370;48.916;8.380;2023-06-04T11:53:15;24.70;35.40
8666;DHT22;4370;48.916;8.380;2023-06-04T11:55:41;24.70;35.80
8666;DHT22;4370;48.916;8.380;2023-06-04T11:58:07;24.80;35.60
8666;DHT22;4370;48.916;8.380;2023-06-04T12:00:33;25.00;35.50
8666;DHT22;4370;48.916;8.380;2023-06-04T12:03:04;24.40;35.80
8666;DHT22;4370;48.916;8.380;2023-06-04T12:05:31;25.10;34.50
8666;DHT22;4370;48.916;8.380;2023-06-04T12:08:08;24.90;34.80
8666;DHT22;4370;48.916;8.380;2023-06-04T12:10:40;24.80;35.40
8666;DHT22;4370;48.916;8.380;2023-06-04T12:13:05;24.10;34.20
8666;DHT22;4370;48.916;8.380;2023-06-04T12:15:31;24.70;35.00
8666;DHT22;4370;48.916;8.380;2023-06-04T12:17:57;24.70;35.10
8666;DHT22;4370;48.916;8.380;2023-06-04T12:20:37;24.80;34.50
8666;DHT22;4370;48.916;8.380;2023-06-04T12:23:03;24.90;33.40
8666;DHT22;4370;48.916;8.380;2023-06-04T12:25:30;24.90;33.80
8666;DHT22;4370;48.916;8.380;2023-06-04T12:27:56;24.90;33.40
8666;DHT22;4370;48.916;8.380;2023-06-04T12:30:22;25.00;34.20
8666;DHT22;4370;48.916;8.380;2023-06-04T12:32:48;24.90;34.30
8666;DHT22;4370;48.916;8.380;2023-06-04T12:35:14;25.20;34.70
8666;DHT22;4370;48.916;8.380;2023-06-04T12:37:47;24.80;34.40
8666;DHT22;4370;48.916;8.380;2023-06-04T12:40:13;24.80;34.90
8666;DHT22;4370;48.916;8.380;2023-06-04T12:42:39;24.80;34.00
8666;DHT22;4370;48.916;8.380;2023-06-04T12:45:09;24.80;32.50
8666;DHT22;4370;48.916;8.380;2023-06-04T12:47:35;24.90;33.50
8666;DHT22;4370;48.916;8.380;2023-06-04T12:50:00;24.50;32.80
8666;DHT22;4370;48.916;8.380;2023-06-04T12:52:26;24.90;33.60
8666;DHT22;4370;48.916;8.380;2023-06-04T12:54:52;24.20;34.10
8666;DHT22;4370;48.916;8.380;2023-06-04T12:57:17;24.30;34.00
8666;DHT22;4370;48.916;8.380;2023-06-04T12:59:44;25.30;34.10
8666;DHT22;4370;48.916;8.380;2023-06-04T13:02:10;24.90;32.70
8666;DHT22;4370;48.916;8.380;2023-06-04T13:04:36;24.90;32.80
8666;DHT22;4370;48.916;8.380;2023-06-04T13:07:01;25.00;32.20
8666;DHT22;4370;48.916;8.380;2023-06-04T13:09:28;25.20;33.10
8666;DHT22;4370;48.916;8.380;2023-06-04T13:11:54;25.00;32.50
8666;DHT22;4370;48.916;8.380;2023-06-04T13:14:21;25.00;32.20
8666;DHT22;4370;48.916;8.380;2023-06-04T13:16:47;25.10;33.50
8666;DHT22;4370;48.916;8.380;2023-06-04T13:19:14;25.10;33.30
8666;DHT22;4370;48.916;8.380;2023-06-04T13:21:40;25.10;32.40
8666;DHT22;4370;48.916;8.380;2023-06-04T13:24:05;25.10;32.70
8666;DHT22;4370;48.916;8.380;2023-06-04T13:26:33;25.10;32.00
8666;DHT22;4370;48.916;8.380;2023-06-04T13:28:58;25.10;31.80
8666;DHT22;4370;48.916;8.380;2023-06-04T13:31:24;25.40;48.50
8666;DHT22;4370;48.916;8.380;2023-06-04T13:33:50;25.10;32.00
8666;DHT22;4370;48.916;8.380;2023-06-04T13:41:08;25.40;33.30
8666;DHT22;4370;48.916;8.380;2023-06-04T13:43:34;25.20;39.20
8666;DHT22;4370;48.916;8.380;2023-06-04T13:46:00;25.00;39.70
8666;DHT22;4370;48.916;8.380;2023-06-04T13:55:44;24.90;44.30
8666;DHT22;4370;48.916;8.380;2023-06-04T13:58:09;24.80;44.80
8666;DHT22;4370;48.916;8.380;2023-06-04T14:05:30;24.80;45.20
8666;DHT22;4370;48.916;8.380;2023-06-04T14:07:58;24.80;45.40
8666;DHT22;4370;48.916;8.380;2023-06-04T14:10:24;24.70;45.30
8666;DHT22;4370;48.916;8.380;2023-06-04T14:12:49;24.70;39.90
8666;DHT22;4370;48.916;8.380;2023-06-04T14:20:08;24.90;38.20
8666;DHT22;4370;48.916;8.380;2023-06-04T14:22:37;24.90;33.40
8666;DHT22;4370;48.916;8.380;2023-06-04T14:25:04;25.00;32.90
8666;DHT22;4370;48.916;8.380;2023-06-04T14:27:31;25.10;42.60
8666;DHT22;4370;48.916;8.380;2023-06-04T14:29:58;25.00;44.30
8666;DHT22;4370;48.916;8.380;2023-06-04T14:34:50;25.30;40.90
8666;DHT22;4370;48.916;8.380;2023-06-04T14:46:59;25.00;36.60
8666;DHT22;4370;48.916;8.380;2023-06-04T14:51:51;25.00;43.70
8666;DHT22;4370;48.916;8.380;2023-06-04T14:54:21;25.00;44.00
8666;DHT22;4370;48.916;8.380;2023-06-04T14:56:48;24.90;36.40
8666;DHT22;4370;48.916;8.380;2023-06-04T14:59:15;24.90;35.90
8666;DHT22;4370;48.916;8.380;2023-06-04T15:01:41;24.80;43.50
8666;DHT22;4370;48.916;8.380;2023-06-04T15:04:07;24.90;42.70
8666;DHT22;4370;48.916;8.380;2023-06-04T15:06:33;24.90;41.70
8666;DHT22;4370;48.916;8.380;2023-06-04T15:08:59;25.10;41.80
8666;DHT22;4370;48.916;8.380;2023-06-04T15:11:25;24.90;42.30
8666;DHT22;4370;48.916;8.380;2023-06-04T15:13:52;24.90;32.60
8666;DHT22;4370;48.916;8.380;2023-06-04T15:18:45;24.80;41.70
8666;DHT22;4370;48.916;8.380;2023-06-04T15:23:36;24.70;41.30
8666;DHT22;4370;48.916;8.380;2023-06-04T15:50:22;24.70;40.00
8666;DHT22;4370;48.916;8.380;2023-06-04T15:55:14;24.80;29.90
8666;DHT22;4370;48.916;8.380;2023-06-04T15:57:42;24.80;39.50
8666;DHT22;4370;48.916;8.380;2023-06-04T16:00:09;24.90;29.00
8666;DHT22;4370;48.916;8.380;2023-06-04T16:19:36;24.60;40.50
8666;DHT22;4370;48.916;8.380;2023-06-04T16:29:21;24.50;28.60
8666;DHT22;4370;48.916;8.380;2023-06-04T16:31:47;24.40;34.80
8666;DHT22;4370;48.916;8.380;2023-06-04T16:34:12;24.40;40.40
8666;DHT22;4370;48.916;8.380;2023-06-04T16:36:38;24.30;37.90
8666;DHT22;4370;48.916;8.380;2023-06-04T16:39:04;24.30;28.60
8666;DHT22;4370;48.916;8.380;2023-06-04T16:41:31;24.20;41.00
8666;DHT22;4370;48.916;8.380;2023-06-04T16:43:58;24.40;40.20
8666;DHT22;4370;48.916;8.380;2023-06-04T16:46:24;24.30;33.90
8666;DHT22;4370;48.916;8.380;2023-06-04T16:48:50;24.30;40.00
8666;DHT22;4370;48.916;8.380;2023-06-04T17:01:03;24.20;39.30
8666;DHT22;4370;48.916;8.380;2023-06-04T17:05:55;24.00;39.40
8666;DHT22;4370;48.916;8.380;2023-06-04T17:08:21;24.00;39.70
8666;DHT22;4370;48.916;8.380;2023-06-04T17:20:35;24.00;32.30
8666;DHT22;4370;48.916;8.380;2023-06-04T17:23:01;24.10;39.00
8666;DHT22;4370;48.916;8.380;2023-06-04T17:25:27;24.00;27.20
8666;DHT22;4370;48.916;8.380;2023-06-04T17:27:54;24.20;39.00
8666;DHT22;4370;48.916;8.380;2023-06-04T17:30:20;22.40;27.70
8666;DHT22;4370;48.916;8.380;2023-06-04T17:35:16;24.00;30.00
8666;DHT22;4370;48.916;8.380;2023-06-04T17:45:03;23.70;28.60
8666;DHT22;4370;48.916;8.380;2023-06-04T17:47:30;23.70;40.20
8666;DHT22;4370;48.916;8.380;2023-06-04T17:52:21;23.50;38.50
8666;DHT22;4370;48.916;8.380;2023-06-04T17:57:14;23.60;39.80
8666;DHT22;4370;48.916;8.380;2023-06-04T18:14:16;27.60;35.40
8666;DHT22;4370;48.916;8.380;2023-06-04T18:16:41;27.30;32.60
8666;DHT22;4370;48.916;8.380;2023-06-04T18:33:52;23.20;42.20
8666;DHT22;4370;48.916;8.380;2023-06-04T18:36:18;23.00;39.60
8666;DHT22;4370;48.916;8.380;2023-06-04T18:41:10;22.30;45.10
8666;DHT22;4370;48.916;8.380;2023-06-04T18:43:39;21.30;32.30
8666;DHT22;4370;48.916;8.380;2023-06-04T18:46:04;21.30;45.50
8666;DHT22;4370;48.916;8.380;2023-06-04T19:05:31;20.30;47.70
8666;DHT22;4370;48.916;8.380;2023-06-04T19:08:02;20.00;47.50
8666;DHT22;4370;48.916;8.380;2023-06-04T19:10:28;19.60;47.00
8666;DHT22;4370;48.916;8.380;2023-06-04T19:17:45;19.40;46.20
8666;DHT22;4370;48.916;8.380;2023-06-04T19:20:11;19.50;44.80
8666;DHT22;4370;48.916;8.380;2023-06-04T19:25:04;19.20;46.50
8666;DHT22;4370;48.916;8.380;2023-06-04T19:27:29;19.20;46.90
8666;DHT22;4370;48.916;8.380;2023-06-04T19:37:15;18.90;36.20
8666;DHT22;4370;48.916;8.380;2023-06-04T19:46:59;18.50;44.00
8666;DHT22;4370;48.916;8.380;2023-06-04T19:56:42;18.10;50.50
8666;DHT22;4370;48.916;8.380;2023-06-04T19:59:08;17.30;47.60
8666;DHT22;4370;48.916;8.380;2023-06-04T20:13:44;16.70;40.40
8666;DHT22;4370;48.916;8.380;2023-06-04T20:18:36;17.20;51.90
8666;DHT22;4370;48.916;8.380;2023-06-04T20:45:23;17.00;51.40
8666;DHT22;4370;48.916;8.380;2023-06-04T20:50:17;16.40;42.30
8666;DHT22;4370;48.916;8.380;2023-06-04T21:12:15;15.40;45.70
8666;DHT22;4370;48.916;8.380;2023-06-04T21:34:09;14.60;49.00
8666;DHT22;4370;48.916;8.380;2023-06-04T21:36:41;14.80;47.90
8666;DHT22;4370;48.916;8.380;2023-06-04T21:58:35;14.20;56.60
8666;DHT22;4370;48.916;8.380;2023-06-04T22:08:19;13.70;57.40
8666;DHT22;4370;48.916;8.380;2023-06-04T22:18:04;13.20;57.40
8666;DHT22;4370;48.916;8.380;2023-06-04T22:22:57;13.10;53.30
8666;DHT22;4370;48.916;8.380;2023-06-04T22:25:23;13.40;66.90
8666;DHT22;4370;48.916;8.380;2023-06-04T22:30:15;13.30;58.90
8666;DHT22;4370;48.916;8.380;2023-06-04T22:35:08;12.90;60.90
8666;DHT22;4370;48.916;8.380;2023-06-04T22:40:00;13.50;54.90
8666;DHT22;4370;48.916;8.380;2023-06-04T22:42:26;13.60;57.40
8666;DHT22;4370;48.916;8.380;2023-06-04T23:01:54;12.40;60.00
8666;DHT22;4370;48.916;8.380;2023-06-04T23:14:07;11.70;72.20
8666;DHT22;4370;48.916;8.380;2023-06-04T23:43:18;11.70;77.50
8666;DHT22;4370;48.916;8.380;2023-06-04T23:50:37;11.20;63.80
8666;DHT22;4370;48.916;8.380;2023-06-04T23:53:05;10.40;63.40
8666;DHT22;4370;48.916;8.380;2023-06-04T23:55:31;11.30;71.80
